createdAt,value
2018-07-01T00:09:02.240Z,25.8
2018-07-01T00:19:01.462Z,25.8
2018-07-01T00:29:00.694Z,25.8
2018-07-01T00:38:59.964Z,25.9
2018-07-01T00:48:59.139Z,25.9
2018-07-01T00:58:58.364Z,25.9
2018-07-01T01:08:57.588Z,25.9
2018-07-01T01:18:56.813Z,25.9
2018-07-01T01:28:56.038Z,25.9
2018-07-01T01:38:55.273Z,26
2018-07-01T01:48:54.491Z,26
2018-07-01T01:58:53.713Z,26
2018-07-01T02:08:52.937Z,26.1
2018-07-01T02:18:52.164Z,26.1
2018-07-01T02:28:51.386Z,26.1
2018-07-01T02:38:50.612Z,26.1
2018-07-01T02:48:49.837Z,26.1
2018-07-01T02:58:49.063Z,26.1
2018-07-01T03:08:48.286Z,26.1
2018-07-01T03:18:47.562Z,26.1
2018-07-01T03:28:46.734Z,26.1
2018-07-01T03:38:45.962Z,26.1
2018-07-01T03:48:45.190Z,26.1
2018-07-01T03:58:44.456Z,26.2
2018-07-01T04:08:43.638Z,26.3
2018-07-01T04:18:42.854Z,26.3
2018-07-01T04:28:42.077Z,26.4
2018-07-01T04:38:41.351Z,26.5
2018-07-01T04:48:40.527Z,26.6
2018-07-01T04:58:39.755Z,26.7
2018-07-01T05:08:38.976Z,24.6
2018-07-01T05:18:38.195Z,24.6
2018-07-01T05:28:37.419Z,24.9
2018-07-01T05:38:36.643Z,25.1
2018-07-01T05:48:35.872Z,25.3
2018-07-01T05:58:35.094Z,25.6
2018-07-01T06:08:34.339Z,25.7
2018-07-01T06:18:33.541Z,26.1
2018-07-01T06:28:32.762Z,26.6
2018-07-01T06:38:31.996Z,27.1
2018-07-01T06:48:31.218Z,27.6
2018-07-01T06:58:30.433Z,27.6
2018-07-01T07:08:29.658Z,28.2
2018-07-01T07:18:28.882Z,28.8
2018-07-01T07:28:28.113Z,29.4
2018-07-01T07:38:27.328Z,29.9
2018-07-01T07:48:26.558Z,30.6
2018-07-01T07:58:25.782Z,31.2
2018-07-01T08:08:25.002Z,31.8
2018-07-01T08:18:24.224Z,32.3
2018-07-01T08:28:23.450Z,32.9
2018-07-01T08:38:22.674Z,33.5
2018-07-01T08:48:21.899Z,33.9
2018-07-01T08:58:21.122Z,34.4
2018-07-01T09:08:20.346Z,34.8
2018-07-01T09:18:19.572Z,35.4
2018-07-01T09:28:18.796Z,35.9
2018-07-01T09:38:18.021Z,36.5
2018-07-01T09:48:17.256Z,37
2018-07-01T09:58:16.470Z,37.7
2018-07-01T10:08:15.698Z,38.1
2018-07-01T10:18:14.919Z,38.5
2018-07-01T10:28:14.147Z,39.1
2018-07-01T10:38:13.375Z,39.6
2018-07-01T10:48:12.598Z,40.3
2018-07-01T10:58:11.819Z,40.9
2018-07-01T11:08:11.046Z,41.6
2018-07-01T11:18:10.271Z,42.4
2018-07-01T11:28:09.501Z,43.1
2018-07-01T11:38:08.769Z,43.8
2018-07-01T11:48:07.942Z,44.5
2018-07-01T11:58:07.193Z,45.3
2018-07-01T12:08:06.389Z,46
2018-07-01T12:18:05.663Z,46.7
2018-07-01T12:28:04.840Z,47.1
2018-07-01T12:38:04.067Z,46.9
2018-07-01T12:48:03.290Z,47.3
2018-07-01T12:58:02.522Z,47.7
2018-07-01T13:08:01.743Z,47.6
2018-07-01T13:18:00.972Z,47.2
2018-07-01T13:28:00.196Z,47.1
2018-07-01T13:37:59.421Z,46.6
2018-07-01T13:47:58.657Z,43.1
2018-07-01T13:57:57.873Z,37.4
2018-07-01T14:07:57.103Z,35.1
2018-07-01T14:17:56.338Z,35.4
2018-07-01T14:27:55.557Z,35.4
2018-07-01T14:37:54.781Z,35.8
2018-07-01T14:47:54.005Z,36.2
2018-07-01T14:57:53.238Z,35.5
2018-07-01T15:07:52.457Z,36.1
2018-07-01T15:17:51.686Z,36.4
2018-07-01T15:27:50.909Z,36.1
2018-07-01T15:37:50.186Z,35.2
2018-07-01T15:47:49.366Z,34.4
2018-07-01T15:57:48.589Z,33
2018-07-01T16:07:47.819Z,32.1
2018-07-01T16:17:47.077Z,32.1
2018-07-01T16:27:46.272Z,31.6
2018-07-01T16:37:45.547Z,31.8
2018-07-01T16:47:44.726Z,31.9
2018-07-01T16:57:43.953Z,32
2018-07-01T17:07:43.177Z,31.2
2018-07-01T17:17:42.403Z,30.7
2018-07-01T17:27:41.631Z,30.4
2018-07-01T17:37:40.860Z,30.6
2018-07-01T17:47:40.084Z,30.5
2018-07-01T17:57:39.310Z,30.3
2018-07-01T18:07:38.535Z,29.4
2018-07-01T18:17:37.761Z,28.7
2018-07-01T18:27:39.497Z,28.8
2018-07-01T18:37:36.213Z,27.6
2018-07-01T18:47:35.447Z,26.4
2018-07-01T18:57:34.675Z,26.6
2018-07-01T19:01:05.899Z,26.6
2018-07-01T19:04:51.004Z,26.6
2018-07-01T19:14:50.312Z,23.3
2018-07-01T19:24:49.457Z,22.9
2018-07-01T19:34:48.687Z,23.2
2018-07-01T19:44:47.910Z,22.2
2018-07-01T19:54:47.139Z,19.2
2018-07-01T20:04:46.369Z,19
2018-07-01T20:14:45.672Z,18.9
2018-07-01T20:24:44.989Z,18
2018-07-01T20:34:44.296Z,18.1
2018-07-01T20:44:43.608Z,18.1
2018-07-01T20:54:42.927Z,18.1
2018-07-01T21:04:42.197Z,18.1
2018-07-01T21:14:41.419Z,18.1
2018-07-01T21:24:40.647Z,18.2
2018-07-01T21:34:39.875Z,18.2
2018-07-01T21:44:39.101Z,18.2
2018-07-01T21:54:38.327Z,18.2
2018-07-01T22:04:37.552Z,18.3
2018-07-01T22:14:36.783Z,18.3
2018-07-01T22:24:36.006Z,18.3
2018-07-01T22:34:35.236Z,18.3
2018-07-01T22:44:34.456Z,18.4
2018-07-01T22:54:33.681Z,18.4
2018-07-01T23:04:32.907Z,18.4
2018-07-01T23:14:32.142Z,18.4
2018-07-01T23:24:31.359Z,18.4
2018-07-01T23:34:30.585Z,18.5
2018-07-01T23:44:29.812Z,18.6
2018-07-01T23:54:29.036Z,18.6
